Terminal Aerodrome Forecast
Issued by NWS

Home | Current Version | Previous Version | Text Only | Print | Product List | Glossary On
Versions: 1 2 3 4 5 6 7 8 9 10 11 12 13 14 15 16
000
FTUS42 KTAE 230500
TAFECP
TAF
KECP 230535Z 2306/2406 00000KT P6SM BKN070
     FM231000 04004KT P6SM BKN015
     FM231400 05008KT P6SM SCT025
     FM231800 06011G17KT P6SM SCT250
     FM240200 05006KT P6SM SCT250=

USA.gov is the U.S. government's official web portal to all federal, state and local government web resources and services.